Time;durP1;ratioP1;P1;durP2;ratioP2;P2;SDS_P1;SDS_P2;PMS_P1;PMS_P2;Temp;Humidity;BMP_temperature;BMP_pressure;BME280_temperature;BME280_humidity;BME280_pressure;Samples;Min_cycle;Max_cycle;Signal;HPM_P1;HPM_P2
2023/06/17 00:01:05;;;;;;;14.90;7.72;;;;;;;18.30;62.73;100790.50;4987383;28;20138;-79
2023/06/17 00:03:33;;;;;;;9.57;7.75;;;;;;;18.28;62.56;100804.97;4984911;28;20073;-78
2023/06/17 00:06:00;;;;;;;11.65;7.72;;;;;;;18.21;62.68;100795.16;4992545;28;20466;-78
2023/06/17 00:08:26;;;;;;;8.77;7.65;;;;;;;18.21;62.93;100792.53;4988528;28;20070;-78
2023/06/17 00:10:53;;;;;;;18.27;8.20;;;;;;;18.12;62.75;100796.38;4992102;28;20049;-79
2023/06/17 00:13:20;;;;;;;10.35;7.85;;;;;;;18.14;62.77;100799.63;4993613;28;20054;-77
2023/06/17 00:15:50;;;;;;;11.38;7.88;;;;;;;18.14;62.74;100785.56;4987919;28;20054;-77
2023/06/17 00:18:19;;;;;;;10.25;8.13;;;;;;;18.09;63.08;100785.38;4987598;28;20050;-78
2023/06/17 00:20:48;;;;;;;12.38;7.45;;;;;;;18.13;63.17;100795.34;4989419;28;20050;-78
2023/06/17 00:23:14;;;;;;;11.88;7.70;;;;;;;18.09;63.15;100793.31;4987691;28;20054;-78
2023/06/17 00:25:41;;;;;;;11.57;8.35;;;;;;;18.03;63.34;100786.97;4987554;28;20102;-78
2023/06/17 00:28:07;;;;;;;14.50;8.20;;;;;;;18.00;63.22;100784.72;4984938;28;20047;-77
2023/06/17 00:30:34;;;;;;;11.15;7.63;;;;;;;18.01;63.04;100781.06;4981581;28;20163;-77
2023/06/17 00:33:01;;;;;;;9.43;7.38;;;;;;;17.98;63.16;100781.47;4987107;28;20094;-77
2023/06/17 00:35:27;;;;;;;8.63;7.18;;;;;;;17.90;63.50;100779.84;4991563;28;20500;-77
2023/06/17 00:37:55;;;;;;;11.30;7.72;;;;;;;17.82;63.75;100787.97;4985780;28;20060;-77
2023/06/17 00:40:22;;;;;;;10.65;7.80;;;;;;;17.76;63.67;100780.81;4979353;28;20042;-76
2023/06/17 00:42:48;;;;;;;9.90;7.90;;;;;;;17.77;63.79;100779.00;4991807;28;20464;-78
2023/06/17 00:45:15;;;;;;;11.77;8.18;;;;;;;17.78;63.88;100781.44;4983285;28;20141;-76
2023/06/17 00:47:42;;;;;;;13.00;7.45;;;;;;;17.75;63.97;100784.47;4983845;28;20057;-77
2023/06/17 00:50:12;;;;;;;7.82;6.97;;;;;;;17.73;63.99;100780.41;4988217;28;20089;-78
2023/06/17 00:52:40;;;;;;;11.23;7.40;;;;;;;17.72;63.92;100781.41;4987941;28;20488;-77
2023/06/17 00:55:09;;;;;;;9.07;7.53;;;;;;;17.72;63.63;100773.47;4991338;28;20050;-76
2023/06/17 00:57:38;;;;;;;10.35;7.68;;;;;;;17.67;63.56;100775.91;4985846;28;20121;-76
2023/06/17 01:00:10;;;;;;;9.60;7.90;;;;;;;17.68;63.37;100774.88;4988383;28;20057;-80
2023/06/17 01:02:39;;;;;;;11.23;7.45;;;;;;;17.64;63.60;100778.91;4987033;28;20109;-76
2023/06/17 01:05:10;;;;;;;10.70;7.60;;;;;;;17.53;63.71;100780.28;4994634;28;20054;-76
2023/06/17 01:07:46;;;;;;;9.48;7.70;;;;;;;17.52;63.60;100776.81;4997142;28;20587;-77
2023/06/17 01:10:21;;;;;;;8.65;7.57;;;;;;;17.55;64.30;100781.72;4987628;28;20055;-77
2023/06/17 01:12:49;;;;;;;11.80;7.68;;;;;;;17.40;65.60;100785.53;4999110;28;20077;-77
2023/06/17 01:15:17;;;;;;;12.10;8.00;;;;;;;17.29;66.21;100786.09;4999356;28;20532;-77
2023/06/17 01:17:46;;;;;;;13.50;8.05;;;;;;;17.17;66.10;100772.59;4988561;28;20074;-78
2023/06/17 01:20:15;;;;;;;10.77;7.85;;;;;;;17.04;66.42;100764.59;4987624;28;20137;-78
2023/06/17 01:22:43;;;;;;;11.80;7.82;;;;;;;16.90;67.28;100772.47;4982057;28;20054;-77
2023/06/17 01:25:13;;;;;;;11.93;7.70;;;;;;;16.97;67.02;100769.88;4989929;28;20097;-77
2023/06/17 01:27:41;;;;;;;10.45;7.68;;;;;;;16.98;67.57;100768.03;4983516;28;20049;-77
2023/06/17 01:30:09;;;;;;;12.63;8.13;;;;;;;16.92;67.83;100773.09;4991520;28;20054;-78
2023/06/17 01:32:36;;;;;;;9.45;7.88;;;;;;;16.76;68.13;100769.91;4986435;28;20136;-79
2023/06/17 01:35:06;;;;;;;15.07;7.82;;;;;;;16.77;68.55;100782.13;4980709;28;20047;-77
2023/06/17 01:37:41;;;;;;;10.27;7.85;;;;;;;16.78;68.31;100774.00;4993957;28;20141;-80
2023/06/17 01:40:14;;;;;;;10.60;7.90;;;;;;;16.78;68.47;100774.00;4996001;28;20485;-79
2023/06/17 01:42:42;;;;;;;;;;;;;;;16.73;68.39;100770.31;4987695;28;20125;-78
2023/06/17 01:45:10;;;;;;;14.48;8.18;;;;;;;16.67;68.39;100768.44;4981615;28;20009;-78
2023/06/17 01:47:37;;;;;;;9.38;8.15;;;;;;;16.52;68.72;100760.59;4988231;28;20453;-80
2023/06/17 01:50:06;;;;;;;9.00;7.43;;;;;;;16.48;68.23;100761.97;4988497;28;20058;-80
2023/06/17 01:52:33;;;;;;;9.32;7.78;;;;;;;16.43;68.04;100772.28;4995144;28;20086;-78
2023/06/17 01:55:02;;;;;;;11.77;8.15;;;;;;;16.46;67.80;100764.00;4992590;28;20141;-79
2023/06/17 01:57:30;;;;;;;15.88;12.18;;;;;;;16.49;67.65;100763.59;4995957;28;20092;-80
2023/06/17 01:59:57;;;;;;;23.38;18.17;;;;;;;16.49;67.57;100768.88;4988752;28;20230;-77
2023/06/17 02:02:24;;;;;;;20.77;15.60;;;;;;;16.52;67.55;100765.88;4985075;28;20138;-78
2023/06/17 02:04:52;;;;;;;18.13;12.98;;;;;;;16.41;67.19;100767.19;4985884;28;20145;-76
2023/06/17 02:07:24;;;;;;;19.48;10.88;;;;;;;16.30;67.33;100764.25;4994178;28;20082;-78
2023/06/17 02:09:51;;;;;;;17.75;10.82;;;;;;;16.27;67.39;100760.97;4987713;28;20057;-77
2023/06/17 02:12:18;;;;;;;19.50;14.13;;;;;;;16.25;67.30;100757.72;4985715;28;20138;-77
2023/06/17 02:14:46;;;;;;;23.13;18.00;;;;;;;16.25;67.80;100773.56;4983010;28;20078;-79
2023/06/17 02:17:13;;;;;;;23.63;15.85;;;;;;;16.19;68.00;100762.94;4982432;28;20508;-77
2023/06/17 02:19:39;;;;;;;13.88;10.90;;;;;;;16.15;67.60;100751.94;4986622;28;20042;-79
2023/06/17 02:22:06;;;;;;;13.45;8.85;;;;;;;16.19;67.11;100760.28;4994145;28;20144;-78
2023/06/17 02:24:33;;;;;;;12.88;8.07;;;;;;;16.16;67.03;100758.84;4985936;28;20525;-78
2023/06/17 02:27:00;;;;;;;13.93;8.20;;;;;;;16.15;66.89;100759.84;4994495;28;20129;-78
2023/06/17 02:29:27;;;;;;;15.15;8.07;;;;;;;16.19;66.70;100752.38;4994320;28;20100;-78
2023/06/17 02:31:55;;;;;;;10.13;7.97;;;;;;;16.17;66.72;100752.56;4986143;28;20138;-78
2023/06/17 02:34:22;;;;;;;13.95;9.63;;;;;;;16.13;67.07;100750.47;4996481;28;20544;-78
2023/06/17 02:36:51;;;;;;;18.63;13.52;;;;;;;16.11;67.24;100755.94;4992999;28;20130;-78
2023/06/17 02:39:17;;;;;;;57.72;33.38;;;;;;;16.07;67.57;100765.25;4993167;28;20124;-79
2023/06/17 02:41:44;;;;;;;54.88;33.47;;;;;;;15.95;67.64;100756.22;4989140;28;20443;-77
2023/06/17 02:44:11;;;;;;;46.70;31.50;;;;;;;16.01;67.69;100763.38;4989261;28;20043;-78
2023/06/17 02:46:37;;;;;;;42.65;27.08;;;;;;;15.95;68.57;100772.06;4992882;28;20490;-79
2023/06/17 02:49:05;;;;;;;36.38;27.27;;;;;;;15.88;68.41;100764.06;4981593;28;20049;-78
2023/06/17 02:51:32;;;;;;;30.55;21.33;;;;;;;15.84;68.83;100765.44;4983193;28;20078;-77
2023/06/17 02:54:00;;;;;;;21.48;14.15;;;;;;;15.79;68.74;100759.91;4986571;28;20085;-79
2023/06/17 02:56:27;;;;;;;17.95;10.10;;;;;;;15.75;68.84;100761.28;4975274;28;20126;-77
2023/06/17 02:58:54;;;;;;;11.75;8.25;;;;;;;15.72;69.22;100761.66;4988348;28;20236;-78
2023/06/17 03:01:23;;;;;;;11.93;8.52;;;;;;;15.72;69.74;100766.09;4982002;28;20137;-78
2023/06/17 03:03:54;;;;;;;12.60;8.48;;;;;;;15.67;70.04;100773.75;4977727;28;20104;-77
2023/06/17 03:06:23;;;;;;;9.90;8.00;;;;;;;15.62;70.14;100770.84;4983865;28;20050;-78
2023/06/17 03:08:49;;;;;;;10.25;7.97;;;;;;;15.51;70.63;100777.41;4972506;28;20494;-78
2023/06/17 03:11:16;;;;;;;14.45;8.30;;;;;;;15.43;70.57;100772.25;4983535;28;20056;-77
2023/06/17 03:13:43;;;;;;;11.15;7.97;;;;;;;15.39;70.54;100766.50;4989175;28;20476;-78
2023/06/17 03:16:09;;;;;;;13.90;8.60;;;;;;;15.38;70.97;100780.69;4973560;28;20134;-78
2023/06/17 03:18:36;;;;;;;15.07;9.13;;;;;;;15.26;71.45;100776.88;4973758;28;20043;-77
2023/06/17 03:21:03;;;;;;;11.90;8.90;;;;;;;15.17;72.19;100776.16;4986468;28;20065;-78
2023/06/17 03:23:31;;;;;;;12.63;8.90;;;;;;;15.14;72.62;100776.53;4988523;28;20088;-78
2023/06/17 03:25:57;;;;;;;12.90;8.13;;;;;;;15.19;72.70;100771.53;4987020;28;20085;-78
2023/06/17 03:28:24;;;;;;;13.02;8.93;;;;;;;15.27;72.54;100775.88;4973710;28;20093;-78
2023/06/17 03:30:52;;;;;;;15.63;8.23;;;;;;;15.26;72.85;100769.78;4988364;28;20137;-77
2023/06/17 03:33:18;;;;;;;10.25;8.98;;;;;;;15.26;72.64;100767.16;4980888;28;20057;-76
2023/06/17 03:35:45;;;;;;;13.63;9.30;;;;;;;15.32;72.21;100770.88;4992526;28;20061;-78
2023/06/17 03:38:12;;;;;;;14.70;8.63;;;;;;;15.41;72.05;100769.78;4992004;28;20415;-78
2023/06/17 03:40:40;;;;;;;11.73;8.27;;;;;;;15.50;72.59;100779.25;4984188;28;20101;-77
2023/06/17 03:43:06;;;;;;;14.43;8.70;;;;;;;15.56;73.07;100781.19;4977518;28;20062;-77
2023/06/17 03:45:35;;;;;;;12.43;8.63;;;;;;;15.60;73.21;100774.50;4982058;28;20125;-78
2023/06/17 03:48:02;;;;;;;11.85;9.07;;;;;;;15.55;73.69;100784.78;4992406;28;20050;-78
2023/06/17 03:50:29;;;;;;;11.80;8.88;;;;;;;15.54;73.56;100775.22;4976446;28;20054;-78
2023/06/17 03:52:56;;;;;;;13.68;9.77;;;;;;;15.52;73.62;100776.41;4988642;28;20482;-77
2023/06/17 03:55:23;;;;;;;14.68;8.98;;;;;;;15.53;73.63;100778.88;4990312;28;20089;-78
2023/06/17 03:57:52;;;;;;;12.52;9.07;;;;;;;15.50;73.86;100768.69;4993154;28;20046;-78
2023/06/17 04:00:24;;;;;;;12.75;9.32;;;;;;;15.50;74.09;100776.59;4991182;28;20081;-78
2023/06/17 04:02:51;;;;;;;12.75;8.70;;;;;;;15.57;73.77;100774.06;4980168;28;20091;-78
2023/06/17 04:05:18;;;;;;;12.90;8.50;;;;;;;15.89;72.96;100773.63;4988580;28;20057;-77
2023/06/17 04:07:46;;;;;;;13.02;8.73;;;;;;;16.65;70.91;100763.34;4980095;28;20057;-77
2023/06/17 04:10:13;;;;;;;14.48;8.70;;;;;;;17.06;69.29;100760.75;4989153;28;20109;-78
2023/06/17 04:12:42;;;;;;;12.15;8.00;;;;;;;17.82;67.44;100760.69;5000900;28;20050;-79
2023/06/17 04:15:11;;;;;;;20.45;8.23;;;;;;;18.44;65.21;100748.91;4991446;28;20051;-79
2023/06/17 04:17:37;;;;;;;10.93;8.52;;;;;;;18.67;64.75;100745.88;5000898;28;20061;-79
2023/06/17 04:20:10;;;;;;;12.20;8.27;;;;;;;18.96;63.75;100748.03;4976184;28;20047;-80
2023/06/17 04:22:37;;;;;;;;;;;;;;;19.21;63.29;100746.34;4972927;28;20145;-78
2023/06/17 04:25:03;;;;;;;11.38;8.35;;;;;;;19.56;62.24;100743.38;4978868;28;20362;-78
2023/06/17 04:27:30;;;;;;;11.30;8.50;;;;;;;19.97;61.04;100748.22;4983249;28;20126;-78
2023/06/17 04:29:57;;;;;;;16.38;8.75;;;;;;;20.15;60.43;100745.66;4973118;28;20061;-79
2023/06/17 04:32:26;;;;;;;15.05;8.45;;;;;;;19.85;60.94;100750.75;4989802;28;20050;-78
2023/06/17 04:34:53;;;;;;;15.00;8.35;;;;;;;19.61;61.11;100750.69;4974649;28;20110;-79
2023/06/17 04:37:20;;;;;;;11.07;8.30;;;;;;;19.10;62.52;100760.25;4982172;28;20071;-79
2023/06/17 04:39:48;;;;;;;12.23;9.02;;;;;;;18.72;63.73;100757.50;4990490;28;20046;-78
2023/06/17 04:42:16;;;;;;;14.02;8.25;;;;;;;18.47;64.94;100770.50;4975875;28;20082;-79
2023/06/17 04:44:48;;;;;;;13.50;9.18;;;;;;;18.48;65.73;100771.31;4973218;28;20117;-78
2023/06/17 04:47:16;;;;;;;14.18;8.73;;;;;;;19.50;64.38;100762.75;4981162;28;20050;-79
2023/06/17 04:49:47;;;;;;;16.70;9.18;;;;;;;20.12;62.32;100751.38;4983431;28;20096;-78
2023/06/17 04:52:14;;;;;;;16.02;8.40;;;;;;;19.71;62.95;100745.75;4991207;28;20096;-77
2023/06/17 04:54:41;;;;;;;13.27;9.60;;;;;;;19.69;62.87;100751.25;4988233;28;20047;-78
2023/06/17 04:57:08;;;;;;;13.55;8.73;;;;;;;19.60;62.68;100754.38;4989237;28;20133;-78
2023/06/17 04:59:35;;;;;;;15.05;9.02;;;;;;;19.90;62.71;100755.41;4993217;28;20439;-77
2023/06/17 05:02:01;;;;;;;10.80;8.40;;;;;;;20.10;62.28;100763.25;4977413;28;20055;-78
2023/06/17 05:04:28;;;;;;;15.27;9.02;;;;;;;20.04;62.01;100753.50;4972260;28;20050;-77
2023/06/17 05:06:56;;;;;;;11.80;8.45;;;;;;;19.98;61.59;100747.19;4972346;28;20438;-77
2023/06/17 05:09:23;;;;;;;14.90;8.85;;;;;;;20.08;62.06;100758.16;4975068;28;20085;-77
2023/06/17 05:14:17;;;;;;;11.45;9.27;;;;;;;20.30;61.60;100765.78;4983136;28;20124;-79
2023/06/17 05:16:44;;;;;;;11.88;8.65;;;;;;;20.13;62.36;100770.81;4982701;28;20078;-79
2023/06/17 05:19:10;;;;;;;13.25;8.93;;;;;;;20.77;61.22;100754.56;4985486;28;20038;-79
2023/06/17 05:21:37;;;;;;;12.57;9.13;;;;;;;21.82;59.34;100749.78;4997095;28;20133;-79
2023/06/17 05:24:06;;;;;;;11.02;8.43;;;;;;;22.23;58.54;100756.16;4997694;28;20057;-78
2023/06/17 05:26:43;;;;;;;15.55;8.77;;;;;;;23.11;55.89;100733.91;5008782;28;20053;-80
2023/06/17 05:29:10;;;;;;;16.02;8.32;;;;;;;23.21;55.31;100747.44;5003669;28;20050;-79
2023/06/17 05:31:37;;;;;;;11.48;8.75;;;;;;;23.81;53.33;100747.00;4996119;28;20505;-80
2023/06/17 05:34:03;;;;;;;15.15;9.70;;;;;;;24.15;51.00;100748.66;5004866;28;20141;-79
2023/06/17 05:36:30;;;;;;;12.32;9.20;;;;;;;24.80;49.31;100750.75;5002787;28;20114;-79
2023/06/17 05:38:57;;;;;;;18.00;9.82;;;;;;;24.95;49.07;100757.34;5002842;28;20514;-80
2023/06/17 05:41:25;;;;;;;11.43;9.38;;;;;;;24.95;49.08;100760.84;5002831;28;20073;-79
2023/06/17 05:43:51;;;;;;;13.18;8.80;;;;;;;25.26;48.67;100751.34;5000816;28;20167;-78
2023/06/17 05:46:18;;;;;;;12.38;8.93;;;;;;;26.11;47.05;100772.06;5004909;28;20130;-80
2023/06/17 05:48:45;;;;;;;16.45;8.88;;;;;;;25.93;47.74;100758.25;5010619;28;20082;-80
2023/06/17 05:51:11;;;;;;;11.60;9.07;;;;;;;26.41;47.09;100773.41;5004477;28;20129;-81
2023/06/17 05:53:38;;;;;;;16.58;9.00;;;;;;;26.29;47.06;100772.75;4995498;28;20085;-80
2023/06/17 05:56:08;;;;;;;11.10;9.18;;;;;;;25.87;48.29;100768.09;5003034;28;20054;-78
2023/06/17 05:58:37;;;;;;;11.38;8.15;;;;;;;26.84;47.27;100766.97;5002553;28;20050;-80
2023/06/17 06:01:03;;;;;;;15.82;8.65;;;;;;;26.95;47.61;100774.00;4991329;28;20053;-79
2023/06/17 06:03:30;;;;;;;14.85;9.00;;;;;;;27.17;47.36;100765.81;5016897;28;20475;-81
2023/06/17 06:05:56;;;;;;;11.10;8.63;;;;;;;26.82;47.52;100760.25;5002621;28;20085;-80
2023/06/17 06:08:23;;;;;;;13.90;8.60;;;;;;;26.77;47.19;100761.84;5000096;28;20538;-79
2023/06/17 06:10:50;;;;;;;13.20;9.15;;;;;;;27.30;46.05;100759.97;5003148;28;20072;-80
2023/06/17 06:13:16;;;;;;;11.85;9.40;;;;;;;27.57;45.67;100767.00;4992441;28;20050;-80
2023/06/17 06:15:44;;;;;;;13.90;9.10;;;;;;;27.70;45.40;100763.84;5000994;28;20058;-79
2023/06/17 06:18:11;;;;;;;12.68;8.68;;;;;;;28.51;44.17;100761.19;4998242;28;20093;-81
2023/06/17 06:20:37;;;;;;;9.73;8.68;;;;;;;28.06;44.75;100752.03;4996619;28;20127;-79
2023/06/17 06:23:04;;;;;;;13.20;9.27;;;;;;;28.69;44.37;100771.38;4999051;28;20066;-80
2023/06/17 06:25:31;;;;;;;11.93;9.07;;;;;;;29.42;43.30;100767.38;5004162;28;20101;-79
2023/06/17 06:27:58;;;;;;;9.95;8.80;;;;;;;28.02;44.88;100750.97;5003700;28;20377;-82
2023/06/17 06:30:25;;;;;;;11.75;8.88;;;;;;;28.20;45.54;100763.06;5000557;28;20046;-80
2023/06/17 06:32:53;;;;;;;11.57;8.93;;;;;;;27.65;45.71;100755.75;4999780;28;20493;-80
2023/06/17 06:35:20;;;;;;;12.60;9.30;;;;;;;27.81;46.27;100757.41;4997926;28;20152;-80
2023/06/17 06:37:46;;;;;;;14.60;10.05;;;;;;;27.90;45.13;100749.59;4999506;28;20124;-80
2023/06/17 06:40:13;;;;;;;11.65;9.05;;;;;;;28.58;45.27;100767.09;4997333;28;20042;-80
2023/06/17 06:42:41;;;;;;;11.63;9.48;;;;;;;28.87;43.56;100764.59;4999054;28;20052;-81
2023/06/17 06:45:08;;;;;;;15.07;9.38;;;;;;;28.22;43.67;100757.44;5005146;28;20317;-80
2023/06/17 06:47:35;;;;;;;11.40;9.07;;;;;;;28.84;44.19;100773.25;5003381;28;20573;-80
2023/06/17 06:50:03;;;;;;;14.00;9.63;;;;;;;28.38;43.88;100756.34;4997042;28;20081;-81
2023/06/17 06:52:29;;;;;;;12.13;9.27;;;;;;;29.08;43.31;100761.84;4996714;28;20114;-80
2023/06/17 06:54:56;;;;;;;12.77;8.90;;;;;;;28.92;42.82;100753.81;4999227;28;20100;-79
2023/06/17 06:57:22;;;;;;;12.60;8.93;;;;;;;29.65;43.09;100759.44;4998606;28;20054;-80
2023/06/17 06:59:50;;;;;;;11.10;8.73;;;;;;;28.80;43.10;100747.13;4998729;28;20097;-79
2023/06/17 07:02:17;;;;;;;14.10;9.65;;;;;;;29.46;42.27;100749.56;5009243;28;20070;-78
2023/06/17 07:04:44;;;;;;;12.70;8.80;;;;;;;30.07;42.12;100768.06;5002825;28;20077;-79
2023/06/17 07:07:12;;;;;;;13.52;9.20;;;;;;;28.29;43.46;100747.22;5012043;28;20146;-78
2023/06/17 07:09:39;;;;;;;22.30;10.02;;;;;;;27.50;45.19;100747.63;5004688;28;20092;-77
2023/06/17 07:12:07;;;;;;;11.48;9.02;;;;;;;28.96;43.45;100756.78;4999078;28;20424;-78
2023/06/17 07:14:33;;;;;;;14.80;8.85;;;;;;;29.40;44.08;100751.44;5002682;28;20082;-79
2023/06/17 07:17:00;;;;;;;11.90;7.95;;;;;;;30.49;42.76;100764.69;5002161;28;20081;-78
2023/06/17 07:19:26;;;;;;;13.80;9.02;;;;;;;29.71;42.56;100758.31;4997078;28;20477;-79
2023/06/17 07:21:53;;;;;;;10.88;8.27;;;;;;;29.63;42.11;100750.00;4997597;28;20056;-79
2023/06/17 07:24:24;;;;;;;15.95;8.60;;;;;;;27.80;44.86;100758.50;4996430;28;20133;-81
2023/06/17 07:26:51;;;;;;;13.40;8.80;;;;;;;29.59;43.39;100755.16;4997927;28;20069;-76
2023/06/17 07:29:17;;;;;;;15.82;8.18;;;;;;;30.34;43.07;100763.75;4989978;28;20418;-80
2023/06/17 07:31:44;;;;;;;12.05;8.70;;;;;;;30.47;41.67;100759.59;5003158;28;20112;-78
2023/06/17 07:34:11;;;;;;;11.32;8.77;;;;;;;31.21;41.06;100758.22;4995334;28;20054;-79
2023/06/17 07:36:37;;;;;;;13.98;8.40;;;;;;;30.73;41.10;100753.94;4996178;28;20531;-79
2023/06/17 07:39:05;;;;;;;10.98;8.30;;;;;;;31.48;40.65;100754.09;4994857;28;20050;-79
2023/06/17 07:41:33;;;;;;;14.13;8.60;;;;;;;30.98;40.14;100749.03;4995360;28;20050;-79
2023/06/17 07:43:59;;;;;;;12.43;8.57;;;;;;;29.79;42.23;100746.09;4995303;28;20081;-79
2023/06/17 07:46:26;;;;;;;12.30;8.80;;;;;;;30.89;40.31;100745.38;4995503;28;20134;-79
2023/06/17 07:48:53;;;;;;;9.98;8.73;;;;;;;31.07;40.18;100746.50;4991606;28;20050;-79
2023/06/17 07:51:20;;;;;;;11.40;8.60;;;;;;;30.56;40.62;100743.56;5002741;28;20124;-79
2023/06/17 07:53:47;;;;;;;10.43;8.05;;;;;;;31.11;41.15;100750.25;4990381;28;20056;-78
2023/06/17 07:56:14;;;;;;;12.48;8.15;;;;;;;31.64;39.87;100745.47;4987232;28;20089;-78
2023/06/17 07:58:43;;;;;;;10.20;8.75;;;;;;;31.64;39.11;100736.56;4988878;28;20038;-79
2023/06/17 08:01:10;;;;;;;8.80;7.90;;;;;;;31.93;38.83;100744.50;4987491;28;20064;-79
2023/06/17 08:03:37;;;;;;;11.18;8.13;;;;;;;32.11;38.62;100738.25;4989260;28;20051;-77
2023/06/17 08:06:04;;;;;;;17.30;9.00;;;;;;;31.65;38.37;100740.88;4987096;28;20042;-77
2023/06/17 08:08:31;;;;;;;16.23;9.27;;;;;;;32.07;37.86;100748.06;4993520;28;20054;-77
2023/06/17 08:10:58;;;;;;;15.02;9.18;;;;;;;31.95;36.90;100726.06;4992247;28;20129;-78
2023/06/17 08:13:24;;;;;;;9.82;8.80;;;;;;;32.05;37.21;100730.50;4987914;28;20137;-78
2023/06/17 08:15:52;;;;;;;9.50;7.80;;;;;;;31.61;37.70;100737.16;4989807;28;20085;-78
2023/06/17 08:18:19;;;;;;;11.68;8.38;;;;;;;32.36;37.34;100739.72;4992843;28;20114;-78
2023/06/17 08:20:45;;;;;;;8.98;7.43;;;;;;;32.79;36.17;100736.75;4992786;28;20129;-78
2023/06/17 08:23:12;;;;;;;8.68;7.43;;;;;;;32.51;35.48;100731.31;4991829;28;20054;-79
2023/06/17 08:25:40;;;;;;;9.93;8.95;;;;;;;30.21;36.21;100710.44;5000583;28;20137;-79
2023/06/17 08:28:06;;;;;;;21.27;7.60;;;;;;;31.48;37.19;100719.75;4997362;28;20093;-79
2023/06/17 08:30:33;;;;;;;9.45;7.20;;;;;;;31.78;36.12;100721.19;5000853;28;20046;-79
2023/06/17 08:33:01;;;;;;;10.68;7.70;;;;;;;31.65;35.89;100714.63;5003415;28;20053;-78
2023/06/17 08:35:27;;;;;;;8.80;6.70;;;;;;;31.47;35.16;100709.22;5001092;28;20106;-78
2023/06/17 08:37:54;;;;;;;7.40;6.25;;;;;;;31.60;34.49;100705.78;4997052;28;20042;-79
2023/06/17 08:40:22;;;;;;;10.02;7.15;;;;;;;31.27;34.64;100703.00;4996182;28;20121;-79
2023/06/17 08:42:56;;;;;;;10.02;7.25;;;;;;;31.52;34.91;100703.75;5000546;28;20392;-79
2023/06/17 08:45:25;;;;;;;10.27;7.50;;;;;;;31.18;34.34;100699.38;4998346;28;20085;-78
2023/06/17 08:47:52;;;;;;;11.90;7.43;;;;;;;30.74;36.76;100699.63;5000269;28;20634;-78
2023/06/17 08:50:20;;;;;;;10.20;6.53;;;;;;;31.98;34.96;100703.81;4996583;28;20077;-79
2023/06/17 08:52:48;;;;;;;9.25;6.43;;;;;;;32.43;33.98;100702.22;4999919;28;20124;-79
2023/06/17 08:55:14;;;;;;;12.57;6.32;;;;;;;32.18;33.89;100694.53;5004286;28;20046;-77
2023/06/17 08:57:42;;;;;;;10.48;6.95;;;;;;;32.50;34.47;100702.63;5005746;28;20081;-78
2023/06/17 09:00:10;;;;;;;11.57;6.60;;;;;;;32.46;34.74;100696.22;4996921;28;20082;-78
2023/06/17 09:02:38;;;;;;;8.93;6.68;;;;;;;32.01;34.93;100689.69;4996573;28;20110;-79
2023/06/17 09:05:06;;;;;;;7.72;6.25;;;;;;;31.88;34.15;100690.47;4990322;28;20058;-81
2023/06/17 09:07:34;;;;;;;8.65;6.47;;;;;;;31.50;35.05;100681.59;4993174;28;20050;-81
2023/06/17 09:10:05;;;;;;;13.30;6.30;;;;;;;31.81;35.06;100682.72;5009409;28;20133;-78
2023/06/17 09:12:36;;;;;;;8.88;7.32;;;;;;;31.26;35.60;100679.78;5002004;28;20057;-80
2023/06/17 09:15:03;;;;;;;10.63;6.53;;;;;;;31.31;36.04;100690.50;5022110;28;20046;-79
2023/06/17 09:17:31;;;;;;;8.70;6.30;;;;;;;31.63;35.25;100686.25;5017252;28;20114;-80
2023/06/17 09:20:08;;;;;;;8.93;6.93;;;;;;;30.66;35.33;100682.19;5010408;28;20073;-81
2023/06/17 09:22:38;;;;;;;10.50;7.78;;;;;;;31.22;36.05;100676.03;5007591;28;20055;-80
2023/06/17 09:25:11;;;;;;;8.93;6.68;;;;;;;31.41;34.84;100680.66;5013848;28;20116;-79
2023/06/17 09:27:38;;;;;;;9.52;6.63;;;;;;;31.14;35.79;100676.72;5002777;28;20129;-79
2023/06/17 09:30:10;;;;;;;8.65;7.00;;;;;;;31.85;34.80;100685.66;5007506;28;20128;-79
2023/06/17 09:32:40;;;;;;;7.07;6.22;;;;;;;31.18;34.71;100683.16;5010879;28;20480;-79
2023/06/17 09:35:08;;;;;;;8.63;6.75;;;;;;;31.13;35.86;100691.34;5011932;28;20050;-80
2023/06/17 09:37:36;;;;;;;8.50;6.70;;;;;;;30.77;35.05;100679.34;4999988;28;20049;-80
2023/06/17 09:40:05;;;;;;;9.80;6.63;;;;;;;31.15;35.55;100672.94;4999413;28;20169;-80
2023/06/17 09:42:32;;;;;;;7.55;6.78;;;;;;;31.08;35.93;100682.44;4998954;28;20493;-80
2023/06/17 09:45:03;;;;;;;11.50;7.03;;;;;;;31.12;35.61;100670.78;5000412;28;20141;-80
2023/06/17 09:47:32;;;;;;;8.88;7.25;;;;;;;30.62;36.39;100674.94;5009572;28;20053;-80
2023/06/17 09:50:03;;;;;;;7.63;6.72;;;;;;;31.07;36.62;100673.53;5006331;28;20050;-79
2023/06/17 09:52:31;;;;;;;12.30;7.65;;;;;;;30.99;36.78;100675.00;5007620;28;20408;-79
2023/06/17 09:54:59;;;;;;;8.32;6.78;;;;;;;30.46;37.85;100685.06;5014498;28;20132;-79
2023/06/17 09:57:31;;;;;;;14.00;7.85;;;;;;;30.48;37.12;100679.38;5013020;28;20050;-79
2023/06/17 09:59:59;;;;;;;10.77;7.70;;;;;;;30.55;36.79;100686.06;5014728;28;20053;-79
2023/06/17 10:02:25;;;;;;;8.40;6.80;;;;;;;30.10;38.32;100683.84;5013615;28;20050;-78
2023/06/17 10:04:53;;;;;;;10.27;7.05;;;;;;;30.06;38.06;100683.59;5008109;28;20113;-78
2023/06/17 10:07:23;;;;;;;7.80;7.05;;;;;;;29.85;38.33;100677.53;4992933;28;20051;-78
2023/06/17 10:09:50;;;;;;;8.52;7.72;;;;;;;29.74;38.56;100676.03;4995778;28;20481;-79
2023/06/17 10:12:19;;;;;;;10.82;7.43;;;;;;;29.69;38.95;100684.16;5004987;28;20042;-78
2023/06/17 10:14:47;;;;;;;9.52;7.82;;;;;;;29.14;38.84;100671.84;5002511;28;20141;-79
2023/06/17 10:17:17;;;;;;;9.40;7.22;;;;;;;29.17;40.12;100674.78;5008689;28;20092;-78
2023/06/17 10:19:45;;;;;;;9.02;7.80;;;;;;;28.95;38.59;100668.97;5008804;28;20460;-79
2023/06/17 10:22:15;;;;;;;10.20;7.10;;;;;;;29.03;38.05;100665.69;5008536;28;20046;-79
2023/06/17 10:24:42;;;;;;;11.65;7.15;;;;;;;29.22;37.42;100658.59;5001112;28;20092;-79
2023/06/17 10:27:09;;;;;;;10.02;7.20;;;;;;;29.55;38.30;100672.41;5013418;28;20042;-78
2023/06/17 10:29:42;;;;;;;10.32;6.90;;;;;;;29.31;37.85;100654.19;4994031;28;20042;-80
2023/06/17 10:32:19;;;;;;;9.32;6.97;;;;;;;29.79;37.83;100678.66;5013444;28;20053;-79
2023/06/17 10:35:11;;;;;;;11.32;7.07;;;;;;;29.33;38.22;100662.81;5005205;28;20164;-80
2023/06/17 10:37:39;;;;;;;10.65;7.05;;;;;;;28.95;37.71;100664.38;5018822;28;20069;-80
2023/06/17 10:40:26;;;;;;;8.30;6.78;;;;;;;29.17;37.57;100669.41;5018336;28;20507;-79
2023/06/17 10:42:58;;;;;;;8.60;6.50;;;;;;;29.54;36.56;100665.41;5006346;28;20054;-79
2023/06/17 10:45:29;;;;;;;11.00;6.13;;;;;;;29.69;35.99;100665.28;4998214;28;20046;-81
2023/06/17 10:48:14;;;;;;;8.60;6.00;;;;;;;29.83;36.18;100674.31;5003462;28;20146;-78
2023/06/17 10:50:40;;;;;;;11.23;6.25;;;;;;;29.50;36.86;100664.34;5018057;28;20061;-79
2023/06/17 10:53:07;;;;;;;10.60;6.70;;;;;;;29.67;37.00;100665.56;4997861;28;20046;-79
2023/06/17 10:55:34;;;;;;;10.20;6.75;;;;;;;29.22;36.96;100663.97;5009392;28;20109;-79
2023/06/17 10:58:01;;;;;;;8.43;6.80;;;;;;;28.96;37.64;100651.72;5014676;28;20137;-79
2023/06/17 11:00:28;;;;;;;8.90;6.40;;;;;;;29.25;36.61;100662.63;5012480;28;20054;-78
2023/06/17 11:02:55;;;;;;;7.10;6.40;;;;;;;29.54;35.40;100650.03;5010721;28;20413;-78
2023/06/17 11:05:22;;;;;;;8.20;6.80;;;;;;;29.20;36.55;100641.09;5009666;28;20133;-80
2023/06/17 11:07:48;;;;;;;9.60;6.75;;;;;;;28.78;37.58;100649.66;5006307;28;20082;-80
2023/06/17 11:10:16;;;;;;;12.02;7.30;;;;;;;29.10;37.06;100644.66;5006217;28;20117;-79
2023/06/17 11:12:46;;;;;;;8.63;7.30;;;;;;;28.56;37.31;100645.41;5018277;28;20078;-79
2023/06/17 11:15:12;;;;;;;11.07;7.88;;;;;;;28.77;37.62;100640.75;5017451;28;20133;-79
2023/06/17 11:17:40;;;;;;;8.43;7.22;;;;;;;29.01;37.65;100636.34;5010133;28;20132;-79
2023/06/17 11:20:08;;;;;;;11.43;7.40;;;;;;;29.24;37.88;100636.75;5011015;28;20125;-79
2023/06/17 11:22:38;;;;;;;9.63;7.07;;;;;;;28.96;37.20;100632.88;5011418;28;20058;-79
2023/06/17 11:25:05;;;;;;;8.55;7.00;;;;;;;28.92;37.87;100623.72;5005235;28;20057;-78